Latest Coastal Weather Observations for Gabo Island

IDV60701

Issued at 7:11 am EST Sunday 24 July 2016 (issued every 10 minutes, with the page automatically refreshed every 10 minutes)

About coastal observations | Map of coastal stations | Coastal observations for VIC | Marine services | Other Formats
Station Details ID: 084016 Name: GABO ISLAND LIGHTHOUSE Lat: -37.57 Lon: 149.92 Height: 15.2 m
Data from the previous 72 hours. | See also: Recent months at Gabo Island
Date/Time
EST
Temp
°C
Wind Pressure Rain since
9am
mm
Weather Cloud Vis
km
Sea
Height
m
Swell
Dir  Spd
kts
Gust
kts
hPa Trend Height
m
Period
s
Dir
24/07:00am 6.7 WNW 7 11 1011.9 - 0.4 - - - - - - -
24/06:30am 6.8 WNW 8 11 1011.7 - 0.4 - - - - - - -
24/06:00am 6.7 WNW 7 11 1011.3 - 0.4 - - - - - - -
24/05:30am 7.2 W 11 14 1011.3 - 0.4 - - - - - - -
24/05:00am 8.0 W 16 20 1010.8 - 0.4 - - - - - - -
24/04:30am 7.8 W 16 21 1010.6 - 0.4 - - - - - - -
24/04:00am 7.9 W 19 24 1010.3 - 0.4 - - - - - - -
24/03:30am 7.9 WSW 17 22 1010.1 - 0.4 - - - - - - -
24/03:00am 8.2 SW 28 34 1010.3 - 0.2 Recent precip. - - - - - -
24/02:30am 8.2 SW 28 36 1010.2 - 0.2 - - - - - - -
24/02:00am 8.4 SW 33 41 1010.1 - 0.0 - - - - - - -
24/01:30am 8.7 SW 33 41 1009.8 - 0.0 - - - - - - -
24/01:19am 9.1 WSW 27 38 1009.9 - 0.0 - - - - - - -
24/01:00am 9.2 WSW 28 36 1009.5 - 0.0 - - - - - - -
24/12:30am 9.5 W 28 35 1009.3 - 0.0 - - - - - - -
24/12:00am 9.5 WSW 28 37 1009.0 - 0.0 - - - - - - -
 
Date/Time
EST
Temp
°C
Wind Pressure Rain since
9am
mm
Weather Cloud Vis
km
Sea
Height
m
Swell
Dir  Spd
kts
Gust
kts
hPa Trend Height
m
Period
s
Dir
23/11:30pm 9.5 WSW 27 35 1008.8 - 0.0 - - - - - - -
23/11:00pm 9.4 W 28 36 1008.4 - 0.0 - - - - - - -
23/10:45pm 9.4 W 26 36 1008.4 - 0.0 - - - - - - -
23/10:30pm 9.5 W 27 34 1008.4 - 0.0 - - - - - - -
23/10:11pm 9.4 W 27 37 1008.1 - 0.0 - - - - - - -
23/10:00pm 9.4 W 29 37 1008.0 - 0.0 - - - - - - -
23/09:30pm 9.5 W 29 40 1007.6 - 0.0 - - - - - - -
23/09:00pm 9.8 W 32 43 1006.9 - 0.0 Fine Mostly clear 15 5 4.5 7 SW
23/08:31pm 9.8 W 32 42 1006.4 - 0.0 - - - - - - -
23/08:30pm 9.9 W 32 41 1006.4 - 0.0 - - - - - - -
23/08:00pm 9.4 W 31 44 1006.2 - 0.0 - - - - - - -
23/07:30pm 10.1 WSW 28 40 1005.4 - 0.0 - - - - - - -
23/07:01pm 10.0 W 27 37 1005.0 - 0.0 - - - - - - -
23/07:00pm 9.9 W 27 35 1005.1 - 0.0 - - - - - - -
23/06:45pm 9.8 W 26 36 1004.9 - 0.0 - - - - - - -
23/06:30pm 9.9 WSW 28 35 1004.8 - 0.0 - - - - - - -
23/06:06pm 10.0 WSW 27 38 1004.2 - 0.0 - - - - - - -
23/06:00pm 10.1 W 25 33 1004.3 - 0.0 - - - - - - -
23/05:30pm 9.6 W 24 32 1003.9 - 0.0 - - - - - - -
23/05:00pm 9.9 WSW 25 32 1003.3 - 0.0 - - - - - - -
23/04:41pm 10.0 WSW 26 36 1002.7 - 0.0 - - - - - - -
23/04:30pm 10.1 WSW 30 37 1002.5 - 0.0 - - - - - - -
23/04:02pm 10.7 WSW 29 39 1002.1 - 0.0 - - - - - - -
23/04:00pm 10.7 WSW 29 37 1002.1 - 0.0 - - - - - - -
23/03:30pm 10.6 W 32 45 1001.5 - 0.0 - - - - - - -
23/03:00pm 10.8 W 37 55 1001.0 - 0.0 Fine Mostly clear 15 3 4.0 7 SW
23/02:30pm 10.9 WSW 35 48 1000.6 - 0.0 - - - - - - -
23/02:00pm 10.9 WSW 37 49 1000.1 - 0.0 - - - - - - -
23/01:30pm 11.3 WSW 35 48 999.6 - 0.0 - - - - - - -
23/01:00pm 11.1 WSW 36 46 999.0 - 0.0 - - - - - - -
23/12:30pm 10.7 WSW 33 45 998.8 - 0.0 - - - - - - -
23/12:00pm 10.8 WSW 36 50 998.3 - 0.0 - - - - - - -
23/11:30am 10.3 WSW 39 54 998.1 - 0.0 - - - - - - -
23/11:00am 10.1 WSW 35 48 997.7 - 0.0 - - - - - - -
23/10:34am 10.1 WSW 34 51 997.3 - 0.0 - - - - - - -
23/10:30am 10.9 WSW 31 41 997.4 - 0.0 - - - - - - -
23/10:00am 11.0 WSW 29 41 996.7 - 0.0 - - - - - - -
23/09:48am 11.3 WSW 30 40 996.4 - 0.0 - - - - - - -
23/09:30am 11.2 W 24 32 995.9 - 0.0 - - - - - - -
23/09:07am 10.9 W 30 40 995.4 - 0.0 - - - - - - -
23/09:00am 10.9 W 27 37 995.4 - 9.6 Fine Mostly clear 30 2 2.0 7 SW
23/08:30am 10.4 W 30 40 995.0 - 9.6 - - - - - - -
23/08:01am 10.3 W 30 40 994.4 - 9.6 - - - - - - -
23/08:00am 10.6 W 31 40 994.4 - 9.6 - - - - - - -
23/07:30am 10.7 W 35 49 993.8 - 9.6 - - - - - - -
23/07:11am 11.3 W 29 42 993.2 - 9.6 - - - - - - -
23/07:09am 11.0 WSW 29 37 993.1 - 9.6 - - - - - - -
23/07:06am 10.6 W 15 32 992.9 - 9.6 - - - - - - -
23/07:00am 9.6 W 12 17 992.6 - 9.6 - - - - - - -
23/06:30am 8.7 NNW 6 8 991.9 - 9.6 - - - - - - -
23/06:00am 9.3 NW 5 7 991.5 - 9.6 - - - - - - -
23/05:30am 9.9 NW 7 10 991.3 - 9.6 - - - - - - -
23/05:00am 9.7 WNW 6 8 990.7 - 9.6 - - - - - - -
23/04:30am 9.9 NW 7 9 990.6 - 9.6 - - - - - - -
23/04:00am 10.0 NW 6 9 990.7 - 9.6 - - - - - - -
23/03:30am 10.4 NNW 10 16 990.8 - 9.6 - - - - - - -
23/03:00am 10.2 N 8 11 991.2 - 9.2 Fine Mostly cloudy 30 1 1.0 7 NE
23/02:30am 9.8 N 5 7 991.3 - 9.2 - - - - - - -
23/02:00am 10.4 NW 4 6 992.0 - 9.2 - - - - - - -
23/01:30am 10.5 NW 6 8 992.6 - 9.2 - - - - - - -
23/01:00am 10.2 WNW 7 9 993.1 - 9.2 - - - - - - -
23/12:30am 10.3 WNW 8 11 993.0 - 9.2 - - - - - - -
23/12:00am 10.5 WNW 9 13 993.4 - 9.2 - - - - - - -
 
Date/Time
EST
Temp
°C
Wind Pressure Rain since
9am
mm
Weather Cloud Vis
km
Sea
Height
m
Swell
Dir  Spd
kts
Gust
kts
hPa Trend Height
m
Period
s
Dir
22/11:30pm 10.4 NW 9 13 993.7 - 9.2 - - - - - - -
22/11:00pm 10.6 WNW 9 13 993.9 - 9.2 - - - - - - -
22/10:30pm 10.9 WNW 10 14 994.6 - 9.2 - - - - - - -
22/10:00pm 11.2 WNW 11 14 995.1 - 9.2 - - - - - - -
22/09:30pm 11.7 W 14 17 995.5 - 9.2 - - - - - - -
22/09:00pm 12.3 WSW 15 18 995.5 - 9.2 Fine Mostly clear 30 1 1.0 6 NE
22/08:30pm 12.4 W 16 19 995.9 - 9.2 - - - - - - -
22/08:00pm 12.7 WSW 19 26 996.1 - 9.2 - - - - - - -
22/07:30pm 13.2 SW 24 31 995.5 - 9.2 - - - - - - -
22/07:00pm 13.3 SSW 29 35 995.2 - 9.2 - - - - - - -
22/06:51pm 13.3 SSW 24 33 995.1 - 9.2 - - - - - - -
22/06:30pm 13.4 WSW 7 10 994.5 - 9.2 - - - - - - -
22/06:00pm 13.6 NNW 6 9 994.1 - 9.2 - - - - - - -
22/05:30pm 13.8 NNW 6 8 993.7 - 9.2 - - - - - - -
22/05:00pm 13.3 CALM 0 2 993.1 - 9.2 - - - - - - -
22/04:30pm 13.6 S 1 5 994.0 - 9.2 - - - - - - -
22/04:00pm 13.8 NE 2 5 993.3 - 8.4 - - - - - - -
22/03:30pm 14.1 S 12 15 993.6 - 4.8 - - - - - - -
22/03:00pm 14.5 WSW 10 11 994.1 - 2.2 Rain Cloudy 3 1 1.0 6 NE
22/02:30pm 15.5 W 8 10 993.8 - 1.4 - - - - - - -
22/02:00pm 17.1 SSW 3 4 993.6 - 1.2 - - - - - - -
22/01:30pm 17.2 W 6 8 993.7 - 0.6 - - - - - - -
22/01:00pm 16.7 N 9 12 993.7 - 0.2 - - - - - - -
22/12:30pm 16.9 NNE 16 19 993.8 - 0.0 - - - - - - -
22/12:00pm 17.6 NNE 18 21 994.9 - 0.0 - - - - - - -
22/11:30am 18.1 NNE 20 24 995.8 - 0.0 - - - - - - -
22/11:00am 18.0 NNE 19 23 996.7 - 0.0 - - - - - - -
22/10:30am 17.5 NNE 16 19 997.8 - 0.0 - - - - - - -
22/10:00am 15.8 NNE 17 21 998.1 - 0.0 - - - - - - -
22/09:30am 14.6 NNE 13 16 998.3 - 0.0 - - - - - - -
22/09:00am 14.5 N 13 17 999.1 - 0.0 Fine Mostly cloudy 30 1 0.5 10 SE
22/08:30am 14.8 NE 14 17 999.9 - 0.0 - - - - - - -
22/08:00am 14.4 N 9 13 1000.3 - 0.0 - - - - - - -
22/07:30am 14.4 NNE 13 16 1000.6 - 0.0 - - - - - - -
22/07:00am 13.9 NNE 14 17 1000.8 - 0.0 - - - - - - -
22/06:30am 14.5 NNE 16 19 1001.1 - 0.0 - - - - - - -
22/06:00am 13.9 N 11 14 1001.7 - 0.0 - - - - - - -
22/05:30am 13.8 NNE 14 17 1002.1 - 0.0 - - - - - - -
22/05:00am 13.3 NNE 13 16 1002.7 - 0.0 - - - - - - -
22/04:30am 13.0 N 12 15 1003.8 - 0.0 - - - - - - -
22/04:00am 13.0 N 9 13 1004.4 - 0.0 - - - - - - -
22/03:30am 13.3 N 8 11 1005.2 - 0.0 - - - - - - -
22/03:00am 13.1 N 11 13 1006.0 - 0.0 Fine Mostly cloudy 30 <0.5 0.5 10 S
22/02:30am 13.4 N 7 8 1006.7 - 0.0 - - - - - - -
22/02:00am 14.6 N 7 9 1007.2 - 0.0 - - - - - - -
22/01:30am 14.5 NNW 8 12 1008.0 - 0.0 - - - - - - -
22/01:00am 13.3 N 8 10 1008.5 - 0.0 - - - - - - -
22/12:30am 13.4 N 6 8 1009.0 - 0.0 - - - - - - -
22/12:00am 12.7 NW 5 7 1009.6 - 0.0 - - - - - - -
 
Date/Time
EST
Temp
°C
Wind Pressure Rain since
9am
mm
Weather Cloud Vis
km
Sea
Height
m
Swell
Dir  Spd
kts
Gust
kts
hPa Trend Height
m
Period
s
Dir
21/11:30pm 12.5 NNW 6 8 1010.1 - 0.0 - - - - - - -
21/11:00pm 12.7 N 6 7 1009.7 - 0.0 - - - - - - -
21/10:30pm 12.4 NNW 4 6 1010.1 - 0.0 - - - - - - -
21/10:00pm 11.9 WSW 2 3 1010.4 - 0.0 - - - - - - -
21/09:30pm 11.9 N 4 6 1011.1 - 0.0 - - - - - - -
21/09:00pm 12.8 N 1 5 1011.3 - 0.0 Fine Mostly clear 30 <0.5 0.5 10 S
21/08:30pm 11.9 NNE 3 4 1011.4 - 0.0 - - - - - - -
21/08:00pm 12.9 N 4 4 1011.8 - 0.0 - - - - - - -
21/07:30pm 13.2 N 7 8 1011.7 - 0.0 - - - - - - -
21/07:00pm 13.8 N 9 11 1011.8 - 0.0 - - - - - - -
21/06:30pm 14.2 NNE 10 12 1012.1 - 0.0 - - - - - - -
21/06:00pm 14.1 NNE 9 11 1012.1 - 0.0 - - - - - - -
21/05:30pm 14.3 NNE 10 11 1012.4 - 0.0 - - - - - - -
21/05:00pm 14.4 NNE 11 14 1012.3 - 0.0 - - - - - - -
21/04:30pm 14.7 NNE 11 13 1012.3 - 0.0 - - - - - - -
21/04:00pm 14.7 NNE 11 13 1012.6 - 0.0 - - - - - - -
21/03:30pm 14.9 NNE 9 11 1013.1 - 0.0 - - - - - - -
21/03:00pm 15.1 NNE 11 13 1013.4 - 0.0 Fine Cloudy 20 <0.5 0.5 10 S
21/02:30pm 15.3 NNE 11 13 1013.5 - 0.0 - - - - - - -
21/02:00pm 15.4 NNE 13 15 1013.4 - 0.0 - - - - - - -
21/01:30pm 15.4 NNE 13 16 1013.9 - 0.0 - - - - - - -
21/01:00pm 15.8 NNE 13 15 1014.3 - 0.0 - - - - - - -
21/12:30pm 16.4 NNE 14 16 1014.6 - 0.0 - - - - - - -
21/12:00pm 15.5 NNE 20 23 1015.0 - 0.0 - - - - - - -
21/11:30am 15.4 NNE 19 23 1015.8 - 0.0 - - - - - - -
21/11:00am 15.1 NNE 16 19 1016.7 - 0.0 - - - - - - -
21/10:30am 14.7 NNE 16 20 1017.3 - 0.0 - - - - - - -
21/10:00am 13.8 NNE 15 19 1018.0 - 0.0 - - - - - - -
21/09:30am 14.0 NNE 14 16 1018.2 - 0.0 - - - - - - -
21/09:00am 13.6 NE 11 12 1018.5 - 0.0 Fine Partly cloudy 20 <0.5 0.5 8 SE
21/08:30am 12.3 NNE 7 9 1018.9 - 0.0 - - - - - - -
21/08:00am 11.3 NNE 9 10 1018.9 - 0.0 - - - - - - -
21/07:30am 11.2 NNE 9 10 1019.1 - 0.0 - - - - - - -

Other Formats:

Comma delimited format used in spreadsheet applications
http://www.bom.gov.au/fwo/IDV60701/IDV60701.94933.axf

JavaScript Object Notation format (JSON) in row-major order
http://www.bom.gov.au/fwo/IDV60701/IDV60701.94933.json